x

Prince Edward Pt (45135) Weather Station

11:00pm - Fri 3rd Jul 2015 All times are CDT. -5 hours from GMT.

  • Peak Period 2s
  • Wind
    4mph, 7mph gusts
  • Sea Temp 62°f
  • Air Temp 63°f
  • Sea Pressure 1013.9mb
  • Prince Edward Pt
  • Prince Edward Pt

More Historic Weather Station data

Upgrade to MSW Pro to gain access to the past 30 days of data for over 8000 Wavebouys and Weather Stations around the globe.

Join Pro

Comparision Forecast

View Surf forecast
   
Fri 07/03 11:00pm  -  2s 4 7 mph 1013.9mb 62f 63f
10:00pm 0.3ft 2s 4 7 mph 1013.8mb 62f 63f
9:00pm 0.3ft 2s 4
mph
1014.1mb 62f 63f
8:00pm 0.3ft 4s 4 7 mph 1013.7mb 62f 64f
7:00pm 0.3ft 2s 4
mph
1014.1mb 63f 64f
6:00pm 0.3ft 4s 4
mph
1014.2mb 63f 64f
5:00pm 0.3ft 3s 4
mph
1014.4mb 63f 64f
4:00pm 0.3ft 2s 4
mph
1015.1mb 64f 63f
3:00pm 0.3ft 2s 2
mph
1015.5mb 63f 63f
2:00pm 0.3ft 2s 4
mph
1015.8mb 62f 62f
1:00pm 0.3ft 2s 7
mph
1016.1mb 61f 60f
12:00pm 0.3ft 2s 7
mph
1016.3mb 61f 59f
11:00am 0.3ft 3s 9
mph
1016.6mb 61f 59f
10:00am 0.3ft 3s 2 4 mph 1016.6mb 62f 61f
9:00am 0.3ft 3s 2 4 mph 1016.3mb 61f 60f
8:00am 0.3ft 3s  -  2 mph 1016.3mb 60f 62f
7:00am 0.3ft 3s  -  2 mph 1016.2mb 59f 59f
6:00am 0.7ft 3s 2 4 mph 1015.9mb 59f 59f
5:00am 0.3ft 4s 4
mph
1015.4mb 59f 58f
4:00am 0.7ft 4s 4 7 mph 1014.8mb 59f 58f
3:00am 0.3ft 2s 4 7 mph 1014.6mb 59f 58f
2:00am 0.3ft 2s 4 7 mph 1014.5mb 59f 58f
1:00am 0.3ft 2s 4
mph
1014.5mb 59f 60f
12:00am 0.3ft 2s 9
mph
1014.4mb 59f 60f
Thu 07/02 11:00pm 0.7ft 2s 9 11 mph 1014.2mb 59f 60f
10:00pm 0.7ft 2s 7 9 mph 1014.3mb 59f 60f
9:00pm 0.7ft 3s 4 7 mph 1014.5mb 59f 61f
8:00pm 0.7ft 3s 7 9 mph 1014.2mb 59f 61f
7:00pm 0.7ft 3s 9
mph
1014.1mb 59f 60f
6:00pm 1ft 3s 9 11 mph 1013.9mb 59f 60f
5:00pm 1ft 3s 9 11 mph 1013.9mb 59f 60f
4:00pm 1ft 3s 9 11 mph 1014.2mb 60f 60f
3:00pm 1ft 3s 11 13 mph 1014.3mb 60f 60f
2:00pm 1ft 3s 11 13 mph 1014.6mb 60f 58f
1:00pm 1ft 2s 11 13 mph 1014.8mb 60f 58f
12:00pm 1ft 4s 11 13 mph 1015mb 59f 58f
11:00am 1ft 2s 11 13 mph 1014.9mb 59f 58f
10:00am 1ft 3s 13
mph
1014.9mb 59f 57f
9:00am 1ft 3s 11
mph
1014.6mb 59f 57f
12:00am 1.6ft 4s 9
mph
1012.1mb 58f 60f
Wed 07/01 11:00pm 2ft 4s 11 13 mph 1011.9mb 58f 60f
10:00pm 2ft 5s 11 13 mph 1011.1mb 58f 60f
9:00pm 2.5ft 5s 11 13 mph 1010.4mb 58f 60f
8:00pm 2.5ft 5s 13 16 mph 1009.4mb 58f 60f
7:00pm 3.5ft 5s 13 16 mph 1008.7mb 58f 61f
6:00pm 3.5ft 5s 18 20 mph 1008mb 58f 60f
5:00pm 4ft 5s 16 18 mph 1007.4mb 59f 60f
4:00pm 4.5ft 5s 18 22 mph 1007.1mb 59f 60f
3:00pm 3.5ft 4s 20 25 mph 1006.5mb 59f 60f
2:00pm 2.5ft 4s 20 27 mph 1005.6mb 59f 60f
1:00pm 2ft 4s 22 25 mph 1005.3mb 59f 59f
12:00pm 1.6ft 3s 18 22 mph 1005.3mb 59f 59f
11:00am 1ft 3s 13 16 mph 1005.7mb 59f 58f
10:00am 1ft 3s 11 13 mph 1005.7mb 59f 58f
9:00am 1ft 3s 9 11 mph 1005.5mb 59f 58f
8:00am 1ft 2s 13
mph
1005.7mb 59f 59f
7:00am 0.7ft 2s 13 16 mph 1005.6mb 59f 58f
6:00am 0.3ft 3s 11 13 mph 1005.6mb 59f 58f
5:00am 0.3ft 4s 7 9 mph 1005.8mb 59f 59f
4:00am 0.3ft 5s 4 7 mph 1005.7mb 59f 60f
3:00am 0.3ft 4s 2 4 mph 1005.7mb 59f 60f
2:00am 0.3ft 4s 4
mph
1006.1mb 59f 59f
12:00am 0.7ft 3s 4
mph
1007.1mb 59f 60f
Tue 06/30 11:00pm 0.7ft 3s 2 4 mph 1007.4mb 59f 60f
10:00pm 0.7ft 3s 2 4 mph 1007.8mb 59f 60f
9:00pm 0.7ft 3s 7 9 mph 1008.3mb 58f 61f
8:00pm 0.7ft 3s 9 11 mph 1008mb 58f 61f
4:00pm 1.3ft 4s 11 16 mph 1008.5mb 58f 61f
3:00pm 1.3ft 3s 11 13 mph 1009.4mb 57f 60f
1:00pm 1.6ft 3s 16 18 mph 1010.3mb 57f 60f
12:00pm 1ft 3s 18 20 mph 1010.6mb 57f 60f
11:00am 1ft 3s 13 16 mph 1011.3mb 58f 60f
10:00am 1ft 3s 9 11 mph 1011.8mb 58f 60f
9:00am 0.7ft 3s 11 13 mph 1012.4mb 58f 60f
8:00am 0.7ft 3s 11 13 mph 1012.5mb 57f 59f
7:00am 1ft 3s 9
mph
1013mb 57f 59f
6:00am 1ft 3s 11 13 mph 1012.5mb 58f 59f